createdAt,value
2022-12-29T00:02:12.179Z,5.40
2022-12-29T00:07:15.840Z,4.07
2022-12-29T00:12:20.738Z,4.78
2022-12-29T00:22:44.741Z,5.88
2022-12-29T00:28:07.806Z,6.93
2022-12-29T00:33:30.437Z,4.45
2022-12-29T00:38:52.258Z,7.47
2022-12-29T00:44:11.350Z,4.05
2022-12-29T00:49:34.577Z,8.52
2022-12-29T00:54:39.649Z,3.72
2022-12-29T00:59:45.434Z,5.65
2022-12-29T01:04:48.908Z,4.38
2022-12-29T01:10:09.703Z,9.95
2022-12-29T01:15:16.516Z,6.93
2022-12-29T01:20:21.412Z,4.22
2022-12-29T01:30:29.810Z,2.70
2022-12-29T01:35:33.652Z,5.88
2022-12-29T01:40:46.068Z,6.03
2022-12-29T01:45:54.333Z,6.05
2022-12-29T01:50:58.256Z,7.65
2022-12-29T01:56:06.054Z,7.17
2022-12-29T02:01:11.247Z,3.97
2022-12-29T02:06:18.795Z,4.70
2022-12-29T02:11:23.374Z,4.68
2022-12-29T02:16:43.678Z,7.65
2022-12-29T02:22:13.990Z,7.93
2022-12-29T02:27:47.260Z,5.15
2022-12-29T02:33:00.267Z,5.90
2022-12-29T02:38:14.558Z,8.68
2022-12-29T02:43:28.881Z,6.53
2022-12-29T02:48:40.078Z,7.20
2022-12-29T02:54:01.397Z,7.90
2022-12-29T02:59:05.077Z,10.63
2022-12-29T03:04:30.609Z,7.15
2022-12-29T03:09:44.686Z,4.50
2022-12-29T03:15:14.955Z,8.17
2022-12-29T03:20:27.911Z,6.93
2022-12-29T03:25:34.840Z,7.03
2022-12-29T03:30:40.781Z,5.40
2022-12-29T03:35:48.006Z,6.00
2022-12-29T03:40:55.360Z,5.53
2022-12-29T03:45:58.936Z,5.57
2022-12-29T03:51:03.986Z,7.20
2022-12-29T03:56:07.870Z,6.80
2022-12-29T04:01:11.755Z,6.93
2022-12-29T04:06:16.615Z,5.87
2022-12-29T04:16:23.456Z,7.85
2022-12-29T04:21:28.510Z,7.13
2022-12-29T04:26:32.133Z,8.63
2022-12-29T04:31:35.753Z,4.63
2022-12-29T04:36:41.614Z,9.57
2022-12-29T04:41:45.265Z,7.00
2022-12-29T04:46:48.956Z,7.18
2022-12-29T04:51:53.985Z,9.75
2022-12-29T04:56:57.585Z,5.88
2022-12-29T05:02:01.270Z,6.68
2022-12-29T05:07:06.384Z,7.80
2022-12-29T05:12:10.304Z,8.48
2022-12-29T05:17:14.003Z,5.03
2022-12-29T05:22:19.543Z,7.18
2022-12-29T05:27:23.194Z,6.03
2022-12-29T05:32:26.571Z,14.43
2022-12-29T05:37:31.748Z,8.65
2022-12-29T05:42:36.158Z,11.00
2022-12-29T05:47:39.693Z,6.55
2022-12-29T05:52:44.491Z,7.32
2022-12-29T06:02:51.409Z,5.68
2022-12-29T06:07:56.555Z,5.15
2022-12-29T06:13:00.228Z,5.10
2022-12-29T06:18:03.907Z,6.93
2022-12-29T06:23:08.638Z,9.65
2022-12-29T06:28:13.192Z,7.78
2022-12-29T06:33:16.589Z,10.43
2022-12-29T06:38:22.652Z,11.52
2022-12-29T06:43:26.187Z,13.52
2022-12-29T06:48:29.779Z,10.30
2022-12-29T06:53:34.689Z,12.05
2022-12-29T06:58:38.320Z,9.75
2022-12-29T07:03:43.950Z,13.50
2022-12-29T07:08:49.081Z,15.13
2022-12-29T07:13:52.763Z,14.20
2022-12-29T07:18:56.320Z,11.52
2022-12-29T07:24:01.212Z,11.38
2022-12-29T07:29:05.021Z,11.98
2022-12-29T07:34:08.491Z,9.60
2022-12-29T07:39:14.071Z,12.43
2022-12-29T07:44:17.647Z,8.93
2022-12-29T07:49:21.254Z,10.07
2022-12-29T07:54:26.043Z,12.20
2022-12-29T07:59:30.211Z,8.57
2022-12-29T08:04:33.686Z,13.07
2022-12-29T08:09:38.862Z,9.85
2022-12-29T08:14:42.271Z,9.23
2022-12-29T08:19:46.064Z,10.82
2022-12-29T08:24:51.010Z,10.17
2022-12-29T08:29:54.781Z,8.73
2022-12-29T08:34:58.258Z,10.30
2022-12-29T08:40:05.079Z,8.23
2022-12-29T08:45:10.230Z,13.20
2022-12-29T08:50:13.927Z,8.95
2022-12-29T08:55:18.856Z,7.60
2022-12-29T09:00:23.346Z,11.20
2022-12-29T09:05:26.870Z,12.57
2022-12-29T09:10:31.896Z,8.75
2022-12-29T09:15:35.540Z,11.70
2022-12-29T09:20:39.199Z,7.50
2022-12-29T09:25:44.724Z,9.07
2022-12-29T09:30:48.105Z,7.88
2022-12-29T09:35:54.225Z,11.10
2022-12-29T09:41:04.153Z,8.43
2022-12-29T09:46:17.729Z,8.68
2022-12-29T09:51:26.233Z,10.63
2022-12-29T09:56:31.402Z,15.45
2022-12-29T10:01:39.115Z,13.95
2022-12-29T10:07:27.417Z,8.10
2022-12-29T10:12:27.819Z,10.52
2022-12-29T10:17:43.565Z,9.25
2022-12-29T10:23:04.014Z,11.93
2022-12-29T10:28:18.562Z,11.30
2022-12-29T10:33:26.581Z,10.35
2022-12-29T10:38:37.401Z,9.48
2022-12-29T10:43:48.064Z,12.30
2022-12-29T10:48:51.387Z,12.75
2022-12-29T10:54:00.259Z,13.40
2022-12-29T10:59:15.619Z,10.05
2022-12-29T11:04:34.147Z,8.45
2022-12-29T11:09:43.565Z,10.30
2022-12-29T11:14:48.805Z,10.05
2022-12-29T11:19:52.239Z,10.63
2022-12-29T11:24:57.166Z,8.35
2022-12-29T11:40:20.101Z,12.10
2022-12-29T11:45:27.892Z,13.40
2022-12-29T11:50:34.990Z,12.00
2022-12-29T11:55:39.264Z,11.00
2022-12-29T12:00:45.461Z,19.67
2022-12-29T12:05:54.944Z,12.52
2022-12-29T12:11:04.125Z,7.10
2022-12-29T12:16:14.870Z,9.40
2022-12-29T12:21:34.794Z,14.82
2022-12-29T12:26:44.933Z,11.40
2022-12-29T12:31:56.475Z,11.63
2022-12-29T12:37:17.047Z,14.90
2022-12-29T12:42:34.161Z,12.40
2022-12-29T12:47:52.886Z,13.70
2022-12-29T12:53:17.134Z,15.98
2022-12-29T12:58:30.678Z,16.03
2022-12-29T13:03:49.734Z,19.00
2022-12-29T13:09:20.531Z,16.38
2022-12-29T13:14:36.792Z,17.77
2022-12-29T13:19:48.031Z,13.70
2022-12-29T13:25:02.028Z,19.35
2022-12-29T13:30:13.278Z,12.98
2022-12-29T13:35:41.729Z,14.80
2022-12-29T13:40:52.291Z,18.40
2022-12-29T13:46:05.924Z,17.17
2022-12-29T13:51:12.155Z,22.00
2022-12-29T13:56:21.763Z,18.10
2022-12-29T14:01:31.104Z,21.17
2022-12-29T14:06:41.981Z,16.83
2022-12-29T14:11:45.574Z,22.02
2022-12-29T14:16:49.817Z,18.77
2022-12-29T14:21:57.933Z,24.67
2022-12-29T14:27:01.751Z,24.25
2022-12-29T14:32:30.560Z,20.45
2022-12-29T14:37:40.241Z,22.90
2022-12-29T14:42:44.676Z,21.88
2022-12-29T14:47:49.674Z,21.23
2022-12-29T14:53:02.389Z,26.35
2022-12-29T14:58:13.705Z,21.33
2022-12-29T15:03:25.063Z,28.00
2022-12-29T15:08:34.016Z,26.30
2022-12-29T15:13:39.431Z,23.88
2022-12-29T15:18:47.104Z,26.48
2022-12-29T15:23:52.379Z,25.30
2022-12-29T15:28:56.929Z,31.23
2022-12-29T15:34:12.041Z,27.85
2022-12-29T15:44:30.854Z,27.60
2022-12-29T15:49:34.908Z,27.77
2022-12-29T15:54:44.773Z,27.25
2022-12-29T15:59:49.498Z,26.35
2022-12-29T16:05:17.795Z,25.15
2022-12-29T16:10:30.453Z,25.47
2022-12-29T16:15:33.917Z,24.52
2022-12-29T16:20:42.669Z,25.58
2022-12-29T16:25:47.705Z,31.55
2022-12-29T16:31:00.873Z,33.42
2022-12-29T16:36:04.958Z,32.50
2022-12-29T16:41:10.156Z,36.13
2022-12-29T16:46:27.374Z,31.95
2022-12-29T16:51:33.987Z,35.35
2022-12-29T16:56:39.933Z,33.65
2022-12-29T17:01:43.574Z,27.77
2022-12-29T17:06:47.173Z,30.52
2022-12-29T17:12:05.006Z,37.00
2022-12-29T17:17:18.095Z,39.33
2022-12-29T17:22:26.523Z,36.28
2022-12-29T17:27:35.969Z,34.35
2022-12-29T17:32:39.832Z,37.17
2022-12-29T17:37:43.137Z,30.97
2022-12-29T17:42:49.580Z,34.70
2022-12-29T17:47:53.130Z,28.92
2022-12-29T17:53:01.000Z,29.50
2022-12-29T17:58:18.037Z,37.35
2022-12-29T18:03:25.364Z,35.83
2022-12-29T18:08:29.728Z,33.50
2022-12-29T18:13:45.842Z,33.58
2022-12-29T18:18:50.312Z,35.00
2022-12-29T18:23:54.031Z,35.78
2022-12-29T18:29:00.116Z,36.40
2022-12-29T18:34:08.821Z,42.42
2022-12-29T18:39:12.913Z,38.28
2022-12-29T18:44:17.986Z,39.22
2022-12-29T18:49:21.621Z,47.13
2022-12-29T18:54:29.158Z,55.70
2022-12-29T18:59:34.244Z,56.38
2022-12-29T19:04:37.696Z,74.70
2022-12-29T19:09:41.433Z,75.30
2022-12-29T19:14:46.877Z,71.13
2022-12-29T19:19:50.417Z,73.60
2022-12-29T19:24:59.764Z,75.70
2022-12-29T19:30:05.608Z,78.50
2022-12-29T19:35:10.319Z,87.13
2022-12-29T19:40:16.671Z,77.80
2022-12-29T19:45:21.897Z,72.13
2022-12-29T19:50:25.283Z,81.38
2022-12-29T19:55:28.720Z,93.55
2022-12-29T20:00:33.865Z,95.30
2022-12-29T20:05:37.223Z,99.13
2022-12-29T20:10:40.765Z,100.53
2022-12-29T20:15:46.347Z,95.03
2022-12-29T20:20:49.753Z,109.05
2022-12-29T20:25:57.141Z,103.07
2022-12-29T20:31:04.657Z,114.55
2022-12-29T20:36:09.366Z,114.63
2022-12-29T20:46:21.767Z,102.07
2022-12-29T20:51:27.147Z,111.15
2022-12-29T20:56:32.122Z,89.03
2022-12-29T21:01:37.412Z,98.97
2022-12-29T21:06:41.104Z,112.95
2022-12-29T21:11:44.465Z,115.03
2022-12-29T21:16:49.311Z,127.70
2022-12-29T21:26:55.703Z,110.53
2022-12-29T21:32:06.275Z,80.53
2022-12-29T21:37:10.262Z,100.25
2022-12-29T21:42:13.660Z,95.53
2022-12-29T21:47:18.361Z,79.80
2022-12-29T21:52:21.799Z,87.30
2022-12-29T21:57:42.569Z,84.63
2022-12-29T22:03:04.656Z,87.32
2022-12-29T22:08:25.584Z,87.63
2022-12-29T22:13:29.267Z,92.43
2022-12-29T22:18:34.170Z,83.13
2022-12-29T22:28:43.204Z,80.38
2022-12-29T22:33:48.383Z,76.57
2022-12-29T22:38:51.984Z,76.68
2022-12-29T22:43:56.123Z,70.68
2022-12-29T22:49:01.418Z,78.35
2022-12-29T22:54:05.055Z,78.95
2022-12-29T22:59:08.865Z,71.10
2022-12-29T23:04:59.116Z,68.32
2022-12-29T23:09:37.378Z,71.13
2022-12-29T23:14:40.822Z,62.97
2022-12-29T23:19:45.603Z,59.90
2022-12-29T23:24:49.075Z,64.47
2022-12-29T23:29:52.415Z,68.55
2022-12-29T23:34:57.245Z,57.90
2022-12-29T23:45:03.752Z,56.15
2022-12-29T23:50:10.184Z,54.17
2022-12-29T23:55:13.625Z,55.35
